Time,TemperatureF,DewpointF,PressureIn,WindDirection,WindDirectionDegrees,WindSpeedMPH,WindSpeedGustMPH,Humidity,HourlyPrecipIn,Conditions,Clouds,dailyrainin,SoftwareType,DateUTC
2013-08-11 00:00:00,64.0,57.0,30.12,SSE,157,0.1,2.5,78,0.00,,,-99.99,open2300 version1.11,2013-08-11 04:00:00,
2013-08-11 00:01:00,64.0,57.0,30.12,SSE,157,0.1,2.5,78,0.00,,,-99.99,open2300 version1.11,2013-08-11 04:01:00,
2013-08-11 00:05:00,64.0,57.0,30.12,SSE,157,0.0,0.0,78,0.00,,,-99.99,open2300 version1.11,2013-08-11 04:05:00,
2013-08-11 00:10:00,63.9,56.8,30.13,SSE,157,0.0,0.0,78,0.00,,,-99.99,open2300 version1.11,2013-08-11 04:10:00,
2013-08-11 00:15:00,63.7,56.7,30.13,SSE,157,0.0,0.0,78,0.00,,,-99.99,open2300 version1.11,2013-08-11 04:15:00,
2013-08-11 00:20:00,63.5,56.5,30.13,SSE,157,0.0,0.2,78,0.00,,,-99.99,open2300 version1.11,2013-08-11 04:20:00,
2013-08-11 00:25:00,63.3,56.3,30.12,SSE,157,0.0,0.0,78,0.00,,,-99.99,open2300 version1.11,2013-08-11 04:25:00,
2013-08-11 00:30:00,63.3,56.3,30.13,SSE,157,0.0,0.0,78,0.00,,,-99.99,open2300 version1.11,2013-08-11 04:30:00,
2013-08-11 00:35:00,63.3,56.7,30.12,SSE,157,0.0,0.0,79,0.00,,,-99.99,open2300 version1.11,2013-08-11 04:35:00,
2013-08-11 00:40:00,63.3,56.7,30.12,SSE,157,0.0,0.0,79,0.00,,,-99.99,open2300 version1.11,2013-08-11 04:40:00,
2013-08-11 00:45:00,63.1,56.5,30.12,SSE,157,0.0,0.0,79,0.00,,,-99.99,open2300 version1.11,2013-08-11 04:45:00,
2013-08-11 00:50:00,63.1,56.5,30.12,SSE,157,0.0,0.0,79,0.00,,,-99.99,open2300 version1.11,2013-08-11 04:50:00,
2013-08-11 00:55:00,63.1,56.5,30.12,SSE,157,0.0,0.0,79,0.00,,,-99.99,open2300 version1.11,2013-08-11 04:55:00,
2013-08-11 01:05:00,63.0,56.3,30.12,SSE,157,0.0,0.0,79,0.00,,,-99.99,open2300 version1.11,2013-08-11 05:05:00,
2013-08-11 01:10:00,63.0,56.7,30.12,SSE,157,0.0,0.0,80,0.00,,,-99.99,open2300 version1.11,2013-08-11 05:10:00,
2013-08-11 01:15:00,63.0,56.7,30.12,SSE,157,0.0,0.7,80,0.00,,,-99.99,open2300 version1.11,2013-08-11 05:15:00,
2013-08-11 01:20:00,62.8,56.5,30.12,SSE,157,0.0,0.0,80,0.00,,,-99.99,open2300 version1.11,2013-08-11 05:20:00,
2013-08-11 01:25:00,62.4,56.1,30.12,SSE,157,0.0,0.0,80,0.00,,,-99.99,open2300 version1.11,2013-08-11 05:25:00,
2013-08-11 01:30:00,62.4,56.1,30.12,SSE,157,0.0,0.0,80,0.00,,,-99.99,open2300 version1.11,2013-08-11 05:30:00,
2013-08-11 01:31:00,62.4,56.1,30.12,SSE,157,0.0,0.0,80,0.00,,,-99.99,open2300 version1.11,2013-08-11 05:31:00,
2013-08-11 01:35:00,62.2,56.0,30.11,SSE,157,0.0,0.0,80,0.00,,,-99.99,open2300 version1.11,2013-08-11 05:35:00,
2013-08-11 01:40:00,62.1,56.1,30.11,SSE,157,0.0,0.0,81,0.00,,,-99.99,open2300 version1.11,2013-08-11 05:40:00,
2013-08-11 01:45:00,61.9,56.0,30.11,SSE,157,0.0,0.0,81,0.00,,,-99.99,open2300 version1.11,2013-08-11 05:45:00,
2013-08-11 01:50:00,61.7,55.8,30.11,SSE,157,0.0,0.0,81,0.00,,,-99.99,open2300 version1.11,2013-08-11 05:50:00,
2013-08-11 01:55:00,61.5,55.6,30.11,SSE,157,0.0,0.0,81,0.00,,,-99.99,open2300 version1.11,2013-08-11 05:55:00,
2013-08-11 02:00:00,61.5,55.6,30.12,SSE,157,0.0,0.0,81,0.00,,,-99.99,open2300 version1.11,2013-08-11 06:00:00,
2013-08-11 02:05:00,61.3,55.5,30.11,SSE,157,0.0,0.0,81,0.00,,,-99.99,open2300 version1.11,2013-08-11 06:05:00,
2013-08-11 02:10:00,61.3,55.8,30.12,SSE,157,0.0,0.0,82,0.00,,,-99.99,open2300 version1.11,2013-08-11 06:10:00,
2013-08-11 02:15:00,61.2,55.6,30.12,SSE,157,0.0,0.0,82,0.00,,,-99.99,open2300 version1.11,2013-08-11 06:15:00,
2013-08-11 02:16:00,61.2,55.6,30.12,SSE,157,0.0,0.0,82,0.00,,,-99.99,open2300 version1.11,2013-08-11 06:16:00,
2013-08-11 02:20:00,61.0,55.5,30.12,SSE,157,0.0,0.0,82,0.00,,,-99.99,open2300 version1.11,2013-08-11 06:20:00,
2013-08-11 02:25:00,61.2,56.0,30.12,SSE,157,0.0,0.0,83,0.00,,,-99.99,open2300 version1.11,2013-08-11 06:25:00,
2013-08-11 02:30:00,61.0,55.8,30.12,SSE,157,0.0,0.0,83,0.00,,,-99.99,open2300 version1.11,2013-08-11 06:30:00,
2013-08-11 02:35:00,61.0,55.8,30.12,SSE,157,0.0,0.0,83,0.00,,,-99.99,open2300 version1.11,2013-08-11 06:35:00,
2013-08-11 02:40:00,61.0,55.8,30.12,SSE,157,0.0,0.0,83,0.00,,,-99.99,open2300 version1.11,2013-08-11 06:40:00,
2013-08-11 02:45:00,61.0,55.8,30.12,SSE,157,0.0,0.0,83,0.00,,,-99.99,open2300 version1.11,2013-08-11 06:45:00,
2013-08-11 02:50:00,61.0,56.1,30.12,SSE,157,0.0,0.0,84,0.00,,,-99.99,open2300 version1.11,2013-08-11 06:50:00,
2013-08-11 02:55:00,61.0,56.1,30.12,SSE,157,0.0,0.0,84,0.00,,,-99.99,open2300 version1.11,2013-08-11 06:55:00,
2013-08-11 03:00:00,61.0,56.1,30.12,SSE,157,0.0,0.0,84,0.00,,,-99.99,open2300 version1.11,2013-08-11 07:00:00,
2013-08-11 03:05:00,61.0,56.1,30.12,SSE,157,0.0,0.0,84,0.00,,,-99.99,open2300 version1.11,2013-08-11 07:05:00,
2013-08-11 03:10:00,61.0,56.1,30.12,SSE,157,0.0,0.0,84,0.00,,,-99.99,open2300 version1.11,2013-08-11 07:10:00,
2013-08-11 03:15:00,61.0,56.1,30.12,SSE,157,0.0,0.0,84,0.00,,,-99.99,open2300 version1.11,2013-08-11 07:15:00,
2013-08-11 03:20:00,61.0,56.1,30.12,SSE,157,0.0,0.0,84,0.00,,,-99.99,open2300 version1.11,2013-08-11 07:20:00,
2013-08-11 03:25:00,60.8,56.0,30.11,SSE,157,0.0,0.0,84,0.00,,,-99.99,open2300 version1.11,2013-08-11 07:25:00,
2013-08-11 03:30:00,60.8,56.0,30.11,SSE,157,0.0,0.0,84,0.00,,,-99.99,open2300 version1.11,2013-08-11 07:30:00,
2013-08-11 03:31:00,60.8,56.0,30.11,SSE,157,0.0,0.0,84,0.00,,,-99.99,open2300 version1.11,2013-08-11 07:31:00,
2013-08-11 03:35:00,60.6,55.8,30.11,SSE,157,0.0,0.0,84,0.00,,,-99.99,open2300 version1.11,2013-08-11 07:35:00,
2013-08-11 03:40:00,60.6,56.1,30.11,SSE,157,0.0,0.0,85,0.00,,,-99.99,open2300 version1.11,2013-08-11 07:40:00,
2013-08-11 03:45:00,60.6,56.1,30.12,SSE,157,0.0,0.0,85,0.00,,,-99.99,open2300 version1.11,2013-08-11 07:45:00,
2013-08-11 03:46:00,60.6,56.1,30.12,SSE,157,0.0,0.0,85,0.00,,,-99.99,open2300 version1.11,2013-08-11 07:46:00,
2013-08-11 03:50:00,60.6,56.1,30.12,SSE,157,0.0,0.0,85,0.00,,,-99.99,open2300 version1.11,2013-08-11 07:50:00,
2013-08-11 03:55:00,60.6,56.1,30.11,SSE,157,0.0,0.0,85,0.00,,,-99.99,open2300 version1.11,2013-08-11 07:55:00,
2013-08-11 03:56:00,60.6,56.1,30.11,SSE,157,0.0,0.0,85,0.00,,,-99.99,open2300 version1.11,2013-08-11 07:56:00,
2013-08-11 04:00:00,60.6,56.1,30.12,SSE,157,0.0,0.0,85,0.00,,,-99.99,open2300 version1.11,2013-08-11 08:00:00,
2013-08-11 04:05:00,60.6,56.1,30.12,SSE,157,0.0,0.0,85,0.00,,,-99.99,open2300 version1.11,2013-08-11 08:05:00,
2013-08-11 04:10:00,60.6,56.1,30.12,SSE,157,0.0,0.0,85,0.00,,,-99.99,open2300 version1.11,2013-08-11 08:10:00,
2013-08-11 04:15:00,60.6,56.1,30.12,SSE,157,0.0,0.0,85,0.00,,,-99.99,open2300 version1.11,2013-08-11 08:15:00,
2013-08-11 04:20:00,60.6,56.1,30.12,SSE,157,0.0,0.0,85,0.00,,,-99.99,open2300 version1.11,2013-08-11 08:20:00,
2013-08-11 04:25:00,60.6,56.1,30.12,SSE,157,0.0,0.0,85,0.00,,,-99.99,open2300 version1.11,2013-08-11 08:25:00,
2013-08-11 04:30:00,60.6,56.4,30.12,SSE,157,0.0,0.0,86,0.00,,,-99.99,open2300 version1.11,2013-08-11 08:30:00,
2013-08-11 04:35:00,60.6,56.4,30.12,SSE,157,0.0,0.0,86,0.00,,,-99.99,open2300 version1.11,2013-08-11 08:35:00,
2013-08-11 04:40:00,60.6,56.4,30.11,SSE,157,0.0,0.0,86,0.00,,,-99.99,open2300 version1.11,2013-08-11 08:40:00,
2013-08-11 04:42:00,60.6,56.4,30.11,SSE,157,0.0,0.0,86,0.00,,,-99.99,open2300 version1.11,2013-08-11 08:42:00,
2013-08-11 04:45:00,60.6,56.4,30.11,SSE,157,0.0,0.0,86,0.00,,,-99.99,open2300 version1.11,2013-08-11 08:45:00,
2013-08-11 04:50:00,60.6,56.4,30.12,SSE,157,0.0,0.0,86,0.00,,,-99.99,open2300 version1.11,2013-08-11 08:50:00,
2013-08-11 04:55:00,60.6,56.4,30.12,SSE,157,0.0,0.0,86,0.00,,,-99.99,open2300 version1.11,2013-08-11 08:55:00,
2013-08-11 05:00:00,60.6,56.4,30.11,SSE,157,0.0,0.0,86,0.00,,,-99.99,open2300 version1.11,2013-08-11 09:00:00,
2013-08-11 05:01:00,60.6,56.4,30.11,SSE,157,0.0,0.0,86,0.00,,,-99.99,open2300 version1.11,2013-08-11 09:01:00,
2013-08-11 05:05:00,60.6,56.4,30.12,SSE,157,0.0,0.0,86,0.00,,,-99.99,open2300 version1.11,2013-08-11 09:05:00,
2013-08-11 05:10:00,60.6,56.4,30.11,SSE,157,0.0,0.0,86,0.00,,,-99.99,open2300 version1.11,2013-08-11 09:10:00,
2013-08-11 05:15:00,60.6,56.4,30.11,SSE,157,0.0,0.0,86,0.00,,,-99.99,open2300 version1.11,2013-08-11 09:15:00,
2013-08-11 05:20:00,60.6,56.4,30.11,SSE,157,0.0,0.0,86,0.00,,,-99.99,open2300 version1.11,2013-08-11 09:20:00,
2013-08-11 05:25:00,60.6,56.4,30.11,SSE,157,0.0,0.0,86,0.00,,,-99.99,open2300 version1.11,2013-08-11 09:25:00,
2013-08-11 05:30:00,60.4,56.3,30.11,SSE,157,0.0,0.0,86,0.00,,,-99.99,open2300 version1.11,2013-08-11 09:30:00,
2013-08-11 05:35:00,60.4,56.3,30.11,SSE,157,0.0,0.0,86,0.00,,,-99.99,open2300 version1.11,2013-08-11 09:35:00,
2013-08-11 05:36:00,60.4,56.3,30.11,SSE,157,0.0,0.0,86,0.00,,,-99.99,open2300 version1.11,2013-08-11 09:36:00,
2013-08-11 05:40:00,60.3,56.1,30.11,SSE,157,0.0,0.0,86,0.00,,,-99.99,open2300 version1.11,2013-08-11 09:40:00,
2013-08-11 05:45:00,60.1,55.9,30.11,SSE,157,0.0,0.0,86,0.00,,,-99.99,open2300 version1.11,2013-08-11 09:45:00,
2013-08-11 05:50:00,60.1,55.9,30.12,SSE,157,0.0,0.0,86,0.00,,,-99.99,open2300 version1.11,2013-08-11 09:50:00,
2013-08-11 05:55:00,60.1,55.9,30.12,SSE,157,0.0,0.0,86,0.00,,,-99.99,open2300 version1.11,2013-08-11 09:55:00,
2013-08-11 06:00:00,59.9,55.7,30.12,SSE,157,0.0,0.0,86,0.00,,,-99.99,open2300 version1.11,2013-08-11 10:00:00,
2013-08-11 06:05:00,59.9,56.0,30.12,SSE,157,0.0,0.0,87,0.00,,,-99.99,open2300 version1.11,2013-08-11 10:05:00,
2013-08-11 06:10:00,59.9,56.0,30.12,SSE,157,0.0,0.0,87,0.00,,,-99.99,open2300 version1.11,2013-08-11 10:10:00,
2013-08-11 06:15:00,59.9,56.0,30.12,SSE,157,0.0,0.0,87,0.00,,,-99.99,open2300 version1.11,2013-08-11 10:15:00,
2013-08-11 06:20:00,60.1,56.2,30.12,SSE,157,0.0,0.0,87,0.00,,,-99.99,open2300 version1.11,2013-08-11 10:20:00,
2013-08-11 06:25:00,60.1,56.2,30.12,SSE,157,0.0,0.0,87,0.00,,,-99.99,open2300 version1.11,2013-08-11 10:25:00,
2013-08-11 06:26:00,60.1,56.2,30.12,SSE,157,0.0,0.0,87,0.00,,,-99.99,open2300 version1.11,2013-08-11 10:26:00,
2013-08-11 06:30:00,60.1,56.2,30.12,SSE,157,0.0,0.0,87,0.00,,,-99.99,open2300 version1.11,2013-08-11 10:30:00,
2013-08-11 06:31:00,60.1,56.2,30.12,SSE,157,0.0,0.0,87,0.00,,,-99.99,open2300 version1.11,2013-08-11 10:31:00,
2013-08-11 06:35:00,60.1,56.2,30.12,SSE,157,0.0,0.0,87,0.00,,,-99.99,open2300 version1.11,2013-08-11 10:35:00,
2013-08-11 06:40:00,60.3,56.4,30.12,SSE,157,0.0,0.0,87,0.00,,,-99.99,open2300 version1.11,2013-08-11 10:40:00,
2013-08-11 06:41:00,60.3,56.4,30.12,SSE,157,0.0,0.0,87,0.00,,,-99.99,open2300 version1.11,2013-08-11 10:41:00,
2013-08-11 06:45:00,60.4,56.6,30.12,SSE,157,0.0,0.0,87,0.00,,,-99.99,open2300 version1.11,2013-08-11 10:45:00,
2013-08-11 06:50:00,60.4,56.6,30.12,SSE,157,0.0,0.0,87,0.00,,,-99.99,open2300 version1.11,2013-08-11 10:50:00,
2013-08-11 06:55:00,60.4,56.6,30.13,SSE,157,0.0,0.0,87,0.00,,,-99.99,open2300 version1.11,2013-08-11 10:55:00,
2013-08-11 07:00:00,60.6,57.1,30.12,SSE,157,0.0,0.0,88,0.00,,,-99.99,open2300 version1.11,2013-08-11 11:00:00,
2013-08-11 07:05:00,60.6,57.1,30.13,SSE,157,0.0,0.0,88,0.00,,,-99.99,open2300 version1.11,2013-08-11 11:05:00,
2013-08-11 07:10:00,60.6,57.1,30.13,SSE,157,0.0,0.0,88,0.00,,,-99.99,open2300 version1.11,2013-08-11 11:10:00,
2013-08-11 07:15:00,60.8,57.3,30.12,SSE,157,0.0,0.0,88,0.00,,,-99.99,open2300 version1.11,2013-08-11 11:15:00,
2013-08-11 07:20:00,61.0,57.4,30.12,SSE,157,0.0,0.0,88,0.00,,,-99.99,open2300 version1.11,2013-08-11 11:20:00,
2013-08-11 07:25:00,61.0,57.1,30.13,SSE,157,0.0,0.0,87,0.00,,,-99.99,open2300 version1.11,2013-08-11 11:25:00,
2013-08-11 07:30:00,61.0,57.1,30.13,SSE,157,0.0,0.0,87,0.00,,,-99.99,open2300 version1.11,2013-08-11 11:30:00,
2013-08-11 07:35:00,61.2,57.3,30.12,SSE,157,0.0,0.0,87,0.00,,,-99.99,open2300 version1.11,2013-08-11 11:35:00,
2013-08-11 07:40:00,61.3,57.5,30.13,SSE,157,0.0,0.0,87,0.00,,,-99.99,open2300 version1.11,2013-08-11 11:40:00,
2013-08-11 07:45:00,61.3,57.5,30.12,SSE,157,0.0,0.0,87,0.00,,,-99.99,open2300 version1.11,2013-08-11 11:45:00,
2013-08-11 07:50:00,61.5,57.6,30.13,SSE,157,0.0,0.0,87,0.00,,,-99.99,open2300 version1.11,2013-08-11 11:50:00,
2013-08-11 07:55:00,61.5,57.6,30.12,SSE,157,0.0,0.0,87,0.00,,,-99.99,open2300 version1.11,2013-08-11 11:55:00,
2013-08-11 08:00:00,61.5,57.6,30.12,SSE,157,0.0,0.0,87,0.00,,,-99.99,open2300 version1.11,2013-08-11 12:00:00,
2013-08-11 08:01:00,61.5,57.6,30.12,SSE,157,0.0,0.0,87,0.00,,,-99.99,open2300 version1.11,2013-08-11 12:01:00,
2013-08-11 08:05:00,61.5,57.6,30.12,SSE,157,0.0,0.0,87,0.00,,,-99.99,open2300 version1.11,2013-08-11 12:05:00,
2013-08-11 08:10:00,61.7,57.8,30.12,SSE,157,0.0,0.0,87,0.00,,,-99.99,open2300 version1.11,2013-08-11 12:10:00,
2013-08-11 08:15:00,61.9,58.0,30.12,SSE,157,0.0,0.0,87,0.00,,,-99.99,open2300 version1.11,2013-08-11 12:15:00,
2013-08-11 08:20:00,61.9,58.0,30.12,SSE,157,0.0,0.0,87,0.00,,,-99.99,open2300 version1.11,2013-08-11 12:20:00,
2013-08-11 08:25:00,62.1,58.1,30.12,SSE,157,0.0,0.0,87,0.00,,,-99.99,open2300 version1.11,2013-08-11 12:25:00,
2013-08-11 08:30:00,62.2,58.3,30.12,SSE,157,0.0,0.0,87,0.00,,,-99.99,open2300 version1.11,2013-08-11 12:30:00,
2013-08-11 08:35:00,62.4,58.5,30.12,SSE,157,0.0,0.0,87,0.00,,,-99.99,open2300 version1.11,2013-08-11 12:35:00,
2013-08-11 08:37:00,62.4,58.5,30.12,SSE,157,0.0,0.0,87,0.00,,,-99.99,open2300 version1.11,2013-08-11 12:37:00,
2013-08-11 08:40:00,63.0,58.7,30.11,SSE,157,0.0,0.0,86,0.00,,,-99.99,open2300 version1.11,2013-08-11 12:40:00,
2013-08-11 08:45:00,63.3,58.7,30.12,SSE,157,0.0,0.0,85,0.00,,,-99.99,open2300 version1.11,2013-08-11 12:45:00,
2013-08-11 08:50:00,63.5,58.9,30.12,SSE,157,0.0,0.0,85,0.00,,,-99.99,open2300 version1.11,2013-08-11 12:50:00,
2013-08-11 08:55:00,64.0,59.1,30.12,SSE,157,0.0,0.2,84,0.00,,,-99.99,open2300 version1.11,2013-08-11 12:55:00,
2013-08-11 08:56:00,64.0,59.1,30.12,SSE,157,0.0,0.2,84,0.00,,,-99.99,open2300 version1.11,2013-08-11 12:56:00,
2013-08-11 09:00:00,64.2,59.3,30.12,SSE,157,0.0,0.0,84,0.00,,,-99.99,open2300 version1.11,2013-08-11 13:00:00,
2013-08-11 09:01:00,64.2,59.3,30.12,SSE,157,0.0,0.0,84,0.00,,,-99.99,open2300 version1.11,2013-08-11 13:01:00,
2013-08-11 09:05:00,64.6,59.3,30.12,SSE,157,0.1,1.3,83,0.00,,,-99.99,open2300 version1.11,2013-08-11 13:05:00,
2013-08-11 09:10:00,64.9,59.6,30.12,SSE,157,0.1,1.3,83,0.00,,,-99.99,open2300 version1.11,2013-08-11 13:10:00,
2013-08-11 09:15:00,65.1,59.8,30.12,SSE,157,0.2,1.3,83,0.00,,,-99.99,open2300 version1.11,2013-08-11 13:15:00,
2013-08-11 09:20:00,65.5,60.2,30.12,SSE,157,0.1,1.1,83,0.00,,,-99.99,open2300 version1.11,2013-08-11 13:20:00,
2013-08-11 09:25:00,65.8,60.5,30.12,SSE,157,0.0,0.0,83,0.00,,,-99.99,open2300 version1.11,2013-08-11 13:25:00,
2013-08-11 09:30:00,66.0,60.4,30.12,SSE,157,0.0,0.0,82,0.00,,,-99.99,open2300 version1.11,2013-08-11 13:30:00,
2013-08-11 09:35:00,66.4,60.7,30.12,SSE,157,0.0,0.0,82,0.00,,,-99.99,open2300 version1.11,2013-08-11 13:35:00,
2013-08-11 09:40:00,66.7,61.1,30.12,SSE,157,0.0,0.0,82,0.00,,,-99.99,open2300 version1.11,2013-08-11 13:40:00,
2013-08-11 09:45:00,66.9,61.3,30.12,SSE,157,0.0,0.0,82,0.00,,,-99.99,open2300 version1.11,2013-08-11 13:45:00,
2013-08-11 09:50:00,67.3,61.6,30.12,SSE,157,0.0,0.0,82,0.00,,,-99.99,open2300 version1.11,2013-08-11 13:50:00,
2013-08-11 09:51:00,67.3,61.6,30.12,SSE,157,0.0,0.0,82,0.00,,,-99.99,open2300 version1.11,2013-08-11 13:51:00,
2013-08-11 09:55:00,67.5,61.6,30.12,SSE,157,0.0,0.0,82,0.00,,,-99.99,open2300 version1.11,2013-08-11 13:55:00,
2013-08-11 10:00:00,67.8,62.2,30.12,SSE,157,0.3,4.5,82,0.00,,,-99.99,open2300 version1.11,2013-08-11 14:00:00,
2013-08-11 10:05:00,68.0,62.4,30.12,SSE,157,0.2,3.6,82,0.00,,,-99.99,open2300 version1.11,2013-08-11 14:05:00,
2013-08-11 10:10:00,68.5,62.5,30.12,SSE,157,0.0,0.0,81,0.00,,,-99.99,open2300 version1.11,2013-08-11 14:10:00,
2013-08-11 10:15:00,69.1,63.0,30.12,SSE,157,0.0,0.0,81,0.00,,,-99.99,open2300 version1.11,2013-08-11 14:15:00,
2013-08-11 10:20:00,69.4,63.3,30.12,SSE,157,0.2,2.9,81,0.00,,,-99.99,open2300 version1.11,2013-08-11 14:20:00,
2013-08-11 10:25:00,69.6,63.2,30.12,SSE,157,0.1,2.2,80,0.00,,,-99.99,open2300 version1.11,2013-08-11 14:25:00,
2013-08-11 10:30:00,69.8,62.9,30.12,SSE,157,0.0,0.0,79,0.00,,,-99.99,open2300 version1.11,2013-08-11 14:30:00,
2013-08-11 10:35:00,70.2,63.3,30.12,SSE,157,0.0,0.0,79,0.00,,,-99.99,open2300 version1.11,2013-08-11 14:35:00,
2013-08-11 10:40:00,70.3,63.1,30.12,SSE,157,0.0,0.0,78,0.00,,,-99.99,open2300 version1.11,2013-08-11 14:40:00,
2013-08-11 10:45:00,70.5,63.3,30.12,SSE,157,0.0,0.0,78,0.00,,,-99.99,open2300 version1.11,2013-08-11 14:45:00,
2013-08-11 10:50:00,70.9,63.6,30.12,South,180,0.0,0.0,78,0.00,,,-99.99,open2300 version1.11,2013-08-11 14:50:00,
2013-08-11 10:55:00,71.2,64.0,30.12,SSE,157,0.0,0.0,78,0.00,,,-99.99,open2300 version1.11,2013-08-11 14:55:00,
2013-08-11 11:00:00,71.4,63.8,30.12,South,180,0.0,0.0,77,0.00,,,-99.99,open2300 version1.11,2013-08-11 15:00:00,
2013-08-11 11:05:00,71.4,63.4,30.12,SSE,157,0.1,1.8,76,0.00,,,-99.99,open2300 version1.11,2013-08-11 15:05:00,
2013-08-11 11:10:00,71.8,63.8,30.12,SSE,157,0.0,0.0,76,0.00,,,-99.99,open2300 version1.11,2013-08-11 15:10:00,
2013-08-11 11:15:00,72.1,64.2,30.11,SSE,157,0.0,0.7,76,0.00,,,-99.99,open2300 version1.11,2013-08-11 15:15:00,
2013-08-11 11:20:00,72.3,64.0,30.11,SSE,157,0.1,1.6,75,0.00,,,-99.99,open2300 version1.11,2013-08-11 15:20:00,
2013-08-11 11:25:00,72.5,64.1,30.11,SSE,157,0.0,0.0,75,0.00,,,-99.99,open2300 version1.11,2013-08-11 15:25:00,
2013-08-11 11:30:00,72.7,63.9,30.11,SSE,157,0.0,0.0,74,0.00,,,-99.99,open2300 version1.11,2013-08-11 15:30:00,
2013-08-11 11:35:00,72.7,63.9,30.11,SSE,157,0.0,0.0,74,0.00,,,-99.99,open2300 version1.11,2013-08-11 15:35:00,
2013-08-11 11:40:00,73.0,64.3,30.11,SSE,157,0.0,0.7,74,0.00,,,-99.99,open2300 version1.11,2013-08-11 15:40:00,
2013-08-11 11:45:00,73.2,64.5,30.11,SSE,157,0.0,0.0,74,0.00,,,-99.99,open2300 version1.11,2013-08-11 15:45:00,
2013-08-11 11:46:00,73.2,64.5,30.11,SSE,157,0.0,0.0,74,0.00,,,-99.99,open2300 version1.11,2013-08-11 15:46:00,
2013-08-11 11:50:00,73.6,64.4,30.11,SSE,157,0.0,0.0,73,0.00,,,-99.99,open2300 version1.11,2013-08-11 15:50:00,
2013-08-11 11:55:00,73.6,64.1,30.11,SSE,157,0.0,0.5,72,0.00,,,-99.99,open2300 version1.11,2013-08-11 15:55:00,
2013-08-11 12:00:00,73.6,64.4,30.10,SSE,157,0.0,0.0,73,0.00,,,-99.99,open2300 version1.11,2013-08-11 16:00:00,
2013-08-11 12:05:00,73.8,64.2,30.10,SSE,157,0.0,0.0,72,0.00,,,-99.99,open2300 version1.11,2013-08-11 16:05:00,
2013-08-11 12:10:00,73.9,64.4,30.11,SSE,157,0.0,0.0,72,0.00,,,-99.99,open2300 version1.11,2013-08-11 16:10:00,
2013-08-11 12:11:00,73.9,64.4,30.11,SSE,157,0.0,0.0,72,0.00,,,-99.99,open2300 version1.11,2013-08-11 16:11:00,
2013-08-11 12:15:00,73.8,64.2,30.11,SSE,157,0.0,0.0,72,0.00,,,-99.99,open2300 version1.11,2013-08-11 16:15:00,
2013-08-11 12:20:00,73.9,64.4,30.11,SSE,157,0.0,0.0,72,0.00,,,-99.99,open2300 version1.11,2013-08-11 16:20:00,
2013-08-11 12:25:00,73.9,64.0,30.11,SSE,157,0.0,0.0,71,0.00,,,-99.99,open2300 version1.11,2013-08-11 16:25:00,
2013-08-11 12:30:00,74.1,64.2,30.11,SSE,157,0.0,0.0,71,0.00,,,-99.99,open2300 version1.11,2013-08-11 16:30:00,
2013-08-11 12:35:00,74.3,64.3,30.11,SSE,157,0.0,0.0,71,0.00,,,-99.99,open2300 version1.11,2013-08-11 16:35:00,
2013-08-11 12:40:00,74.3,64.0,30.11,SSE,157,0.0,0.0,70,0.00,,,-99.99,open2300 version1.11,2013-08-11 16:40:00,
2013-08-11 12:45:00,74.5,64.1,30.10,SSE,157,0.0,0.0,70,0.00,,,-99.99,open2300 version1.11,2013-08-11 16:45:00,
2013-08-11 12:46:00,74.5,64.1,30.10,SSE,157,0.0,0.0,70,0.00,,,-99.99,open2300 version1.11,2013-08-11 16:46:00,
2013-08-11 12:50:00,74.8,64.0,30.11,SSE,157,0.0,0.9,69,0.00,,,-99.99,open2300 version1.11,2013-08-11 16:50:00,
2013-08-11 12:55:00,75.0,64.2,30.10,SSE,157,0.0,0.0,69,0.00,,,-99.99,open2300 version1.11,2013-08-11 16:55:00,
2013-08-11 12:56:00,75.0,64.2,30.10,SSE,157,0.0,0.0,69,0.00,,,-99.99,open2300 version1.11,2013-08-11 16:56:00,
2013-08-11 13:00:00,75.0,64.2,30.10,SSE,157,0.0,0.0,69,0.00,,,-99.99,open2300 version1.11,2013-08-11 17:00:00,
2013-08-11 13:05:00,75.0,63.7,30.10,SSE,157,0.0,0.0,68,0.00,,,-99.99,open2300 version1.11,2013-08-11 17:05:00,
2013-08-11 13:10:00,74.8,63.5,30.10,SSE,157,0.0,0.0,68,0.00,,,-99.99,open2300 version1.11,2013-08-11 17:10:00,
2013-08-11 13:15:00,74.5,63.7,30.10,SSE,157,0.0,0.7,69,0.00,,,-99.99,open2300 version1.11,2013-08-11 17:15:00,
2013-08-11 13:20:00,74.5,63.2,30.10,SSE,157,0.0,0.0,68,0.00,,,-99.99,open2300 version1.11,2013-08-11 17:20:00,
2013-08-11 13:25:00,74.5,63.2,30.09,SSE,157,0.0,0.0,68,0.00,,,-99.99,open2300 version1.11,2013-08-11 17:25:00,
2013-08-11 13:30:00,74.7,63.4,30.09,SSE,157,0.0,0.0,68,0.00,,,-99.99,open2300 version1.11,2013-08-11 17:30:00,
2013-08-11 13:35:00,74.8,63.1,30.09,SSE,157,0.0,0.0,67,0.00,,,-99.99,open2300 version1.11,2013-08-11 17:35:00,
2013-08-11 13:38:00,74.8,63.1,30.09,SSE,157,0.0,0.0,67,0.00,,,-99.99,open2300 version1.11,2013-08-11 17:38:00,
2013-08-11 13:40:00,74.8,63.1,30.09,SSE,157,0.0,0.0,67,0.00,,,-99.99,open2300 version1.11,2013-08-11 17:40:00,
2013-08-11 13:45:00,74.8,63.5,30.09,SSE,157,0.0,0.0,68,0.00,,,-99.99,open2300 version1.11,2013-08-11 17:45:00,
2013-08-11 13:50:00,75.0,63.3,30.09,SSE,157,0.0,0.0,67,0.00,,,-99.99,open2300 version1.11,2013-08-11 17:50:00,
2013-08-11 13:55:00,75.4,63.6,30.09,SSW,202,0.2,2.9,67,0.00,,,-99.99,open2300 version1.11,2013-08-11 17:55:00,
2013-08-11 14:00:00,75.7,63.5,30.09,SSW,211,1.2,3.4,66,0.00,,,-99.99,open2300 version1.11,2013-08-11 18:00:00,
2013-08-11 14:05:00,76.5,63.8,30.09,South,172,0.6,2.7,65,0.00,,,-99.99,open2300 version1.11,2013-08-11 18:05:00,
2013-08-11 14:10:00,76.8,63.7,30.09,SW,216,0.6,3.1,64,0.00,,,-99.99,open2300 version1.11,2013-08-11 18:10:00,
2013-08-11 14:15:00,77.0,63.0,30.09,SSW,205,0.8,2.9,62,0.00,,,-99.99,open2300 version1.11,2013-08-11 18:15:00,
2013-08-11 14:17:00,77.0,63.0,30.09,SSW,205,0.8,2.9,62,0.00,,,-99.99,open2300 version1.11,2013-08-11 18:17:00,
2013-08-11 14:20:00,77.2,63.1,30.09,SW,225,0.5,2.5,62,0.00,,,-99.99,open2300 version1.11,2013-08-11 18:20:00,
2013-08-11 14:25:00,77.2,63.1,30.09,SW,225,0.1,1.8,62,0.00,,,-99.99,open2300 version1.11,2013-08-11 18:25:00,
2013-08-11 14:30:00,77.0,62.5,30.08,SW,225,0.3,1.6,61,0.00,,,-99.99,open2300 version1.11,2013-08-11 18:30:00,
2013-08-11 14:31:00,77.0,62.5,30.08,SW,225,0.3,1.6,61,0.00,,,-99.99,open2300 version1.11,2013-08-11 18:31:00,
2013-08-11 14:35:00,77.0,62.5,30.08,SW,225,0.7,2.5,61,0.00,,,-99.99,open2300 version1.11,2013-08-11 18:35:00,
2013-08-11 14:40:00,76.8,62.3,30.08,SW,225,1.0,2.5,61,0.00,,,-99.99,open2300 version1.11,2013-08-11 18:40:00,
2013-08-11 14:45:00,76.6,62.2,30.08,SW,216,0.4,2.0,61,0.00,,,-99.99,open2300 version1.11,2013-08-11 18:45:00,
2013-08-11 14:50:00,76.6,62.2,30.09,SW,225,0.5,1.8,61,0.00,,,-99.99,open2300 version1.11,2013-08-11 18:50:00,
2013-08-11 14:55:00,76.3,61.8,30.09,SW,225,0.2,1.1,61,0.00,,,-99.99,open2300 version1.11,2013-08-11 18:55:00,
2013-08-11 15:00:00,76.1,61.7,30.08,SW,225,0.2,1.6,61,0.00,,,-99.99,open2300 version1.11,2013-08-11 19:00:00,
2013-08-11 15:01:00,76.1,61.7,30.08,SW,225,0.2,1.6,61,0.00,,,-99.99,open2300 version1.11,2013-08-11 19:01:00,
2013-08-11 15:05:00,75.9,62.0,30.09,SW,225,0.0,0.0,62,0.00,,,-99.99,open2300 version1.11,2013-08-11 19:05:00,
2013-08-11 15:07:00,75.9,62.0,30.09,SW,225,0.0,0.0,62,0.00,,,-99.99,open2300 version1.11,2013-08-11 19:07:00,
2013-08-11 15:10:00,75.7,61.8,30.08,SW,225,0.0,0.9,62,0.00,,,-99.99,open2300 version1.11,2013-08-11 19:10:00,
2013-08-11 15:15:00,75.7,62.2,30.08,SW,225,0.4,1.8,63,0.00,,,-99.99,open2300 version1.11,2013-08-11 19:15:00,
2013-08-11 15:16:00,75.7,62.2,30.08,SW,225,0.4,1.8,63,0.00,,,-99.99,open2300 version1.11,2013-08-11 19:16:00,
2013-08-11 15:20:00,75.9,62.0,30.08,SSW,202,0.2,1.6,62,0.00,,,-99.99,open2300 version1.11,2013-08-11 19:20:00,
2013-08-11 15:25:00,76.1,62.6,30.08,SSW,199,0.3,1.3,63,0.00,,,-99.99,open2300 version1.11,2013-08-11 19:25:00,
2013-08-11 15:30:00,76.3,62.7,30.08,South,187,0.2,1.3,63,0.00,,,-99.99,open2300 version1.11,2013-08-11 19:30:00,
2013-08-11 15:35:00,76.3,62.7,30.08,SSE,161,0.4,1.8,63,0.00,,,-99.99,open2300 version1.11,2013-08-11 19:35:00,
2013-08-11 15:40:00,76.3,62.3,30.08,SSW,207,0.3,1.6,62,0.00,,,-99.99,open2300 version1.11,2013-08-11 19:40:00,
2013-08-11 15:45:00,76.5,62.5,30.08,SSE,161,0.3,1.6,62,0.00,,,-99.99,open2300 version1.11,2013-08-11 19:45:00,
2013-08-11 15:50:00,76.6,62.6,30.08,South,174,0.2,1.3,62,0.00,,,-99.99,open2300 version1.11,2013-08-11 19:50:00,
2013-08-11 15:51:00,76.6,62.6,30.08,South,174,0.2,1.3,62,0.00,,,-99.99,open2300 version1.11,2013-08-11 19:51:00,
2013-08-11 15:55:00,76.8,62.8,30.08,SW,225,0.8,2.5,62,0.00,,,-99.99,open2300 version1.11,2013-08-11 19:55:00,
2013-08-11 16:00:00,77.0,62.5,30.08,SSW,201,0.7,2.2,61,0.00,,,-99.99,open2300 version1.11,2013-08-11 20:00:00,
2013-08-11 16:05:00,77.0,62.5,30.08,South,187,0.3,2.5,61,0.00,,,-99.99,open2300 version1.11,2013-08-11 20:05:00,
2013-08-11 16:10:00,77.2,62.7,30.07,SSE,157,0.9,3.1,61,0.00,,,-99.99,open2300 version1.11,2013-08-11 20:10:00,
2013-08-11 16:15:00,77.2,62.2,30.07,SSE,157,0.1,2.9,60,0.00,,,-99.99,open2300 version1.11,2013-08-11 20:15:00,
2013-08-11 16:20:00,77.4,62.4,30.08,SSE,157,0.3,1.8,60,0.00,,,-99.99,open2300 version1.11,2013-08-11 20:20:00,
2013-08-11 16:25:00,77.4,62.4,30.07,SSE,157,0.7,2.2,60,0.00,,,-99.99,open2300 version1.11,2013-08-11 20:25:00,
2013-08-11 16:30:00,77.4,62.4,30.07,South,180,0.5,2.9,60,0.00,,,-99.99,open2300 version1.11,2013-08-11 20:30:00,
2013-08-11 16:35:00,77.2,61.7,30.07,SSW,202,0.1,1.3,59,0.00,,,-99.99,open2300 version1.11,2013-08-11 20:35:00,
2013-08-11 16:40:00,76.8,61.9,30.06,SSW,202,0.1,1.1,60,0.00,,,-99.99,open2300 version1.11,2013-08-11 20:40:00,
2013-08-11 16:45:00,76.6,61.7,30.07,SSE,168,1.0,3.1,60,0.00,,,-99.99,open2300 version1.11,2013-08-11 20:45:00,
2013-08-11 16:46:00,76.6,61.7,30.07,SSE,168,1.0,3.1,60,0.00,,,-99.99,open2300 version1.11,2013-08-11 20:46:00,
2013-08-11 16:50:00,76.6,61.7,30.07,SSE,162,0.7,2.5,60,0.00,,,-99.99,open2300 version1.11,2013-08-11 20:50:00,
2013-08-11 16:55:00,76.6,61.7,30.06,SSE,157,0.1,0.9,60,0.00,,,-99.99,open2300 version1.11,2013-08-11 20:55:00,
2013-08-11 17:00:00,76.5,61.6,30.07,SSE,157,0.4,3.4,60,0.00,,,-99.99,open2300 version1.11,2013-08-11 21:00:00,
2013-08-11 17:05:00,76.3,60.9,30.06,SSE,157,0.5,2.7,59,0.00,,,-99.99,open2300 version1.11,2013-08-11 21:05:00,
2013-08-11 17:10:00,76.1,60.8,30.06,SSE,157,0.2,1.8,59,0.00,,,-99.99,open2300 version1.11,2013-08-11 21:10:00,
2013-08-11 17:15:00,76.3,60.9,30.06,SSE,157,0.5,2.2,59,0.00,,,-99.99,open2300 version1.11,2013-08-11 21:15:00,
2013-08-11 17:20:00,76.3,60.9,30.05,SSE,157,0.3,2.2,59,0.00,,,-99.99,open2300 version1.11,2013-08-11 21:20:00,
2013-08-11 17:25:00,76.3,60.9,30.06,SSE,157,0.1,1.1,59,0.00,,,-99.99,open2300 version1.11,2013-08-11 21:25:00,
2013-08-11 17:30:00,76.1,60.8,30.06,SSE,157,0.0,0.0,59,0.00,,,-99.99,open2300 version1.11,2013-08-11 21:30:00,
2013-08-11 17:35:00,75.9,60.6,30.06,SSE,157,0.0,0.7,59,0.00,,,-99.99,open2300 version1.11,2013-08-11 21:35:00,
2013-08-11 17:40:00,75.9,60.6,30.06,SSE,157,0.0,0.0,59,0.00,,,-99.99,open2300 version1.11,2013-08-11 21:40:00,
2013-08-11 17:45:00,75.7,60.4,30.06,SSE,157,0.0,0.0,59,0.00,,,-99.99,open2300 version1.11,2013-08-11 21:45:00,
2013-08-11 17:50:00,75.7,60.4,30.06,SSE,157,0.0,0.0,59,0.00,,,-99.99,open2300 version1.11,2013-08-11 21:50:00,
2013-08-11 17:55:00,75.6,60.8,30.05,SSE,157,0.0,0.0,60,0.00,,,-99.99,open2300 version1.11,2013-08-11 21:55:00,
2013-08-11 18:00:00,75.6,60.8,30.05,SSE,157,0.0,0.0,60,0.00,,,-99.99,open2300 version1.11,2013-08-11 22:00:00,
2013-08-11 18:05:00,75.4,61.0,30.05,SSE,157,0.0,0.0,61,0.00,,,-99.99,open2300 version1.11,2013-08-11 22:05:00,
2013-08-11 18:10:00,75.0,60.7,30.05,SSE,157,0.0,0.0,61,0.00,,,-99.99,open2300 version1.11,2013-08-11 22:10:00,
2013-08-11 18:15:00,74.8,60.9,30.05,SSE,157,0.0,0.0,62,0.00,,,-99.99,open2300 version1.11,2013-08-11 22:15:00,
2013-08-11 18:20:00,75.0,61.1,30.04,SSE,157,0.0,0.0,62,0.00,,,-99.99,open2300 version1.11,2013-08-11 22:20:00,
2013-08-11 18:21:00,75.0,61.1,30.04,SSE,157,0.0,0.0,62,0.00,,,-99.99,open2300 version1.11,2013-08-11 22:21:00,
2013-08-11 18:25:00,74.8,60.5,30.05,SSE,157,0.0,0.0,61,0.00,,,-99.99,open2300 version1.11,2013-08-11 22:25:00,
2013-08-11 18:30:00,74.8,60.5,30.05,SSE,157,0.0,0.0,61,0.00,,,-99.99,open2300 version1.11,2013-08-11 22:30:00,
2013-08-11 18:31:00,74.8,60.5,30.05,SSE,157,0.0,0.0,61,0.00,,,-99.99,open2300 version1.11,2013-08-11 22:31:00,
2013-08-11 18:35:00,74.7,60.3,30.04,SSE,157,0.0,0.0,61,0.00,,,-99.99,open2300 version1.11,2013-08-11 22:35:00,
2013-08-11 18:40:00,74.5,60.1,30.04,SSE,157,0.0,0.0,61,0.00,,,-99.99,open2300 version1.11,2013-08-11 22:40:00,
2013-08-11 18:45:00,74.5,60.6,30.04,SSE,157,0.0,0.0,62,0.00,,,-99.99,open2300 version1.11,2013-08-11 22:45:00,
2013-08-11 18:50:00,74.3,60.4,30.04,SSE,157,0.0,0.0,62,0.00,,,-99.99,open2300 version1.11,2013-08-11 22:50:00,
2013-08-11 18:55:00,74.1,60.2,30.04,SSE,157,0.0,0.0,62,0.00,,,-99.99,open2300 version1.11,2013-08-11 22:55:00,
2013-08-11 19:00:00,74.1,60.2,30.04,SSE,157,0.0,0.0,62,0.00,,,-99.99,open2300 version1.11,2013-08-11 23:00:00,
2013-08-11 19:05:00,73.9,60.5,30.04,SSE,157,0.0,0.0,63,0.00,,,-99.99,open2300 version1.11,2013-08-11 23:05:00,
2013-08-11 19:06:00,73.9,60.5,30.04,SSE,157,0.0,0.0,63,0.00,,,-99.99,open2300 version1.11,2013-08-11 23:06:00,
2013-08-11 19:10:00,73.8,60.3,30.04,SSE,157,0.0,0.0,63,0.00,,,-99.99,open2300 version1.11,2013-08-11 23:10:00,
2013-08-11 19:15:00,73.6,60.6,30.04,SSE,157,0.0,0.0,64,0.00,,,-99.99,open2300 version1.11,2013-08-11 23:15:00,
2013-08-11 19:20:00,73.4,60.4,30.04,SSE,157,0.0,0.0,64,0.00,,,-99.99,open2300 version1.11,2013-08-11 23:20:00,
2013-08-11 19:25:00,73.2,60.3,30.04,SSE,157,0.0,0.0,64,0.00,,,-99.99,open2300 version1.11,2013-08-11 23:25:00,
2013-08-11 19:30:00,73.2,60.3,30.04,SSE,157,0.0,0.0,64,0.00,,,-99.99,open2300 version1.11,2013-08-11 23:30:00,
2013-08-11 19:35:00,73.0,60.1,30.04,SSE,157,0.0,0.0,64,0.00,,,-99.99,open2300 version1.11,2013-08-11 23:35:00,
2013-08-11 19:40:00,72.9,59.9,30.04,SSE,157,0.0,0.0,64,0.00,,,-99.99,open2300 version1.11,2013-08-11 23:40:00,
2013-08-11 19:45:00,72.7,60.2,30.04,SSE,157,0.0,0.0,65,0.00,,,-99.99,open2300 version1.11,2013-08-11 23:45:00,
2013-08-11 19:50:00,72.5,60.0,30.04,SSE,157,0.0,0.0,65,0.00,,,-99.99,open2300 version1.11,2013-08-11 23:50:00,
2013-08-11 19:55:00,72.3,59.9,30.04,SSE,157,0.0,0.0,65,0.00,,,-99.99,open2300 version1.11,2013-08-11 23:55:00,
2013-08-11 20:00:00,72.3,59.9,30.04,SSE,157,0.0,0.0,65,0.00,,,-99.99,open2300 version1.11,2013-08-12 00:00:00,
2013-08-11 20:05:00,72.1,59.7,30.04,SSE,157,0.0,0.0,65,0.00,,,-99.99,open2300 version1.11,2013-08-12 00:05:00,
2013-08-11 20:10:00,72.1,60.1,30.04,SSE,157,0.0,0.0,66,0.00,,,-99.99,open2300 version1.11,2013-08-12 00:10:00,
2013-08-11 20:11:00,72.1,60.1,30.04,SSE,157,0.0,0.0,66,0.00,,,-99.99,open2300 version1.11,2013-08-12 00:11:00,
2013-08-11 20:15:00,72.0,60.0,30.04,SSE,157,0.0,0.0,66,0.00,,,-99.99,open2300 version1.11,2013-08-12 00:15:00,
2013-08-11 20:20:00,71.8,60.2,30.04,SSE,157,0.0,0.0,67,0.00,,,-99.99,open2300 version1.11,2013-08-12 00:20:00,
2013-08-11 20:21:00,71.8,60.2,30.04,SSE,157,0.0,0.0,67,0.00,,,-99.99,open2300 version1.11,2013-08-12 00:21:00,
2013-08-11 20:25:00,71.6,60.0,30.04,SSE,157,0.0,0.0,67,0.00,,,-99.99,open2300 version1.11,2013-08-12 00:25:00,
2013-08-11 20:30:00,71.4,59.9,30.04,SSE,157,0.0,0.0,67,0.00,,,-99.99,open2300 version1.11,2013-08-12 00:30:00,
2013-08-11 20:35:00,71.2,59.7,30.04,SSE,157,0.0,0.0,67,0.00,,,-99.99,open2300 version1.11,2013-08-12 00:35:00,
2013-08-11 20:36:00,71.2,59.7,30.04,SSE,157,0.0,0.0,67,0.00,,,-99.99,open2300 version1.11,2013-08-12 00:36:00,
2013-08-11 20:40:00,70.9,59.8,30.05,SSE,157,0.0,0.0,68,0.00,,,-99.99,open2300 version1.11,2013-08-12 00:40:00,
2013-08-11 20:45:00,70.5,59.8,30.04,SSE,157,0.0,0.0,69,0.00,,,-99.99,open2300 version1.11,2013-08-12 00:45:00,
2013-08-11 20:50:00,70.2,59.5,30.04,SSE,157,0.0,0.0,69,0.00,,,-99.99,open2300 version1.11,2013-08-12 00:50:00,
2013-08-11 20:55:00,69.8,59.1,30.04,SSE,157,0.0,0.0,69,0.00,,,-99.99,open2300 version1.11,2013-08-12 00:55:00,
2013-08-11 21:00:00,69.4,59.2,30.05,SSE,157,0.0,0.0,70,0.00,,,-99.99,open2300 version1.11,2013-08-12 01:00:00,
2013-08-11 21:05:00,69.1,58.9,30.05,SSE,157,0.0,0.0,70,0.00,,,-99.99,open2300 version1.11,2013-08-12 01:05:00,
2013-08-11 21:10:00,68.7,59.0,30.05,SSE,157,0.0,0.0,71,0.00,,,-99.99,open2300 version1.11,2013-08-12 01:10:00,
2013-08-11 21:11:00,68.7,59.0,30.05,SSE,157,0.0,0.0,71,0.00,,,-99.99,open2300 version1.11,2013-08-12 01:11:00,
2013-08-11 21:15:00,68.5,59.2,30.05,SSE,157,0.0,0.0,72,0.00,,,-99.99,open2300 version1.11,2013-08-12 01:15:00,
2013-08-11 21:20:00,68.4,59.0,30.06,SSE,157,0.0,0.0,72,0.00,,,-99.99,open2300 version1.11,2013-08-12 01:20:00,
2013-08-11 21:25:00,68.2,59.2,30.06,SSE,157,0.0,0.0,73,0.00,,,-99.99,open2300 version1.11,2013-08-12 01:25:00,
2013-08-11 21:30:00,68.0,59.4,30.06,SSE,157,0.0,0.0,74,0.00,,,-99.99,open2300 version1.11,2013-08-12 01:30:00,
2013-08-11 21:35:00,67.8,59.6,30.06,SSE,157,0.0,0.0,75,0.00,,,-99.99,open2300 version1.11,2013-08-12 01:35:00,
2013-08-11 21:38:00,67.8,59.6,30.06,SSE,157,0.0,0.0,75,0.00,,,-99.99,open2300 version1.11,2013-08-12 01:38:00,
2013-08-11 21:40:00,67.8,59.6,30.06,SSE,157,0.0,0.0,75,0.00,,,-99.99,open2300 version1.11,2013-08-12 01:40:00,
2013-08-11 21:45:00,67.8,60.0,30.06,SSE,157,0.0,0.0,76,0.00,,,-99.99,open2300 version1.11,2013-08-12 01:45:00,
2013-08-11 21:50:00,67.6,59.8,30.06,SSE,157,0.0,0.0,76,0.00,,,-99.99,open2300 version1.11,2013-08-12 01:50:00,
2013-08-11 21:55:00,67.6,59.8,30.06,SSE,157,0.0,0.0,76,0.00,,,-99.99,open2300 version1.11,2013-08-12 01:55:00,
2013-08-11 22:00:00,67.6,59.8,30.06,SSE,157,0.0,0.0,76,0.00,,,-99.99,open2300 version1.11,2013-08-12 02:00:00,
2013-08-11 22:05:00,67.6,59.8,30.06,SSE,157,0.0,0.0,76,0.00,,,-99.99,open2300 version1.11,2013-08-12 02:05:00,
2013-08-11 22:10:00,67.6,59.8,30.06,SSE,157,0.0,0.0,76,0.00,,,-99.99,open2300 version1.11,2013-08-12 02:10:00,
2013-08-11 22:15:00,67.6,59.8,30.06,SSE,157,0.0,0.0,76,0.00,,,-99.99,open2300 version1.11,2013-08-12 02:15:00,
2013-08-11 22:20:00,67.5,59.6,30.06,SSE,157,0.0,0.0,76,0.00,,,-99.99,open2300 version1.11,2013-08-12 02:20:00,
2013-08-11 22:25:00,67.3,59.9,30.07,SSE,157,0.0,0.0,77,0.00,,,-99.99,open2300 version1.11,2013-08-12 02:25:00,
2013-08-11 22:30:00,67.3,59.9,30.07,SSE,157,0.0,0.0,77,0.00,,,-99.99,open2300 version1.11,2013-08-12 02:30:00,
2013-08-11 22:35:00,67.3,59.9,30.07,SSE,157,0.0,0.0,77,0.00,,,-99.99,open2300 version1.11,2013-08-12 02:35:00,
2013-08-11 22:40:00,67.1,59.7,30.07,SSE,157,0.0,0.0,77,0.00,,,-99.99,open2300 version1.11,2013-08-12 02:40:00,
2013-08-11 22:45:00,67.1,60.0,30.07,SSE,157,0.0,0.0,78,0.00,,,-99.99,open2300 version1.11,2013-08-12 02:45:00,
2013-08-11 22:50:00,67.1,60.0,30.07,SSE,157,0.0,0.0,78,0.00,,,-99.99,open2300 version1.11,2013-08-12 02:50:00,
2013-08-11 22:55:00,66.9,59.9,30.07,SSE,157,0.0,0.0,78,0.00,,,-99.99,open2300 version1.11,2013-08-12 02:55:00,
2013-08-11 23:00:00,66.9,59.9,30.07,SSE,157,0.0,0.0,78,0.00,,,-99.99,open2300 version1.11,2013-08-12 03:00:00,
2013-08-11 23:05:00,66.9,59.9,30.07,SSE,157,0.0,0.0,78,0.00,,,-99.99,open2300 version1.11,2013-08-12 03:05:00,
2013-08-11 23:10:00,66.7,59.7,30.07,SSE,157,0.0,0.0,78,0.00,,,-99.99,open2300 version1.11,2013-08-12 03:10:00,
2013-08-11 23:15:00,66.7,59.7,30.07,SSE,157,0.0,0.0,78,0.00,,,-99.99,open2300 version1.11,2013-08-12 03:15:00,
2013-08-11 23:16:00,66.7,59.7,30.07,SSE,157,0.0,0.0,78,0.00,,,-99.99,open2300 version1.11,2013-08-12 03:16:00,
2013-08-11 23:20:00,66.7,59.7,30.07,SSE,157,0.0,0.0,78,0.00,,,-99.99,open2300 version1.11,2013-08-12 03:20:00,
2013-08-11 23:25:00,66.6,59.9,30.07,SSE,157,0.0,0.0,79,0.00,,,-99.99,open2300 version1.11,2013-08-12 03:25:00,
2013-08-11 23:30:00,66.6,59.9,30.07,SSE,157,0.0,0.0,79,0.00,,,-99.99,open2300 version1.11,2013-08-12 03:30:00,
2013-08-11 23:35:00,66.6,59.9,30.06,SSE,157,0.0,0.0,79,0.00,,,-99.99,open2300 version1.11,2013-08-12 03:35:00,
2013-08-11 23:40:00,66.6,59.9,30.06,SSE,157,0.0,0.0,79,0.00,,,-99.99,open2300 version1.11,2013-08-12 03:40:00,
2013-08-11 23:41:00,66.6,59.9,30.06,SSE,157,0.0,0.0,79,0.00,,,-99.99,open2300 version1.11,2013-08-12 03:41:00,
2013-08-11 23:45:00,66.4,60.1,30.06,SSE,157,0.0,0.0,80,0.00,,,-99.99,open2300 version1.11,2013-08-12 03:45:00,
2013-08-11 23:50:00,66.4,60.1,30.06,SSE,157,0.0,0.0,80,0.00,,,-99.99,open2300 version1.11,2013-08-12 03:50:00,
2013-08-11 23:55:00,66.4,60.1,30.06,SSE,157,0.0,0.0,80,0.00,,,-99.99,open2300 version1.11,2013-08-12 03:55:00,